Time;durP1;ratioP1;P1;durP2;ratioP2;P2;SDS_P1;SDS_P2;PMS_P1;PMS_P2;Temp;Humidity;BMP_temperature;BMP_pressure;BME280_temperature;BME280_humidity;BME280_pressure;Samples;Min_cycle;Max_cycle;Signal;HPM_P1;HPM_P2
2021/12/27 00:04:14;;;;;;;30.63;17.90;;;;;7.30;99645.00;;;;10328178;28;20320;-79
2021/12/27 00:09:16;;;;;;;29.30;17.60;;;;;7.30;99636.00;;;;10366914;28;20569;-79
2021/12/27 00:14:18;;;;;;;33.60;18.23;;;;;7.30;99633.00;;;;10359257;28;20216;-79
2021/12/27 00:19:20;;;;;;;35.17;17.83;;;;;7.30;99623.00;;;;10371769;28;20202;-79
2021/12/27 00:24:22;;;;;;;33.93;18.50;;;;;7.30;99615.00;;;;10341876;28;20655;-79
2021/12/27 00:29:24;;;;;;;30.63;18.47;;;;;7.30;99613.00;;;;10334249;28;20294;-79
2021/12/27 00:34:26;;;;;;;32.17;17.03;;;;;7.30;99601.00;;;;10344542;28;20742;-79
2021/12/27 00:39:27;;;;;;;33.40;18.27;;;;;7.30;99605.00;;;;10374627;28;20216;-79
2021/12/27 00:44:29;;;;;;;34.67;17.53;;;;;7.20;99600.00;;;;10350361;28;20246;-78
2021/12/27 00:49:31;;;;;;;33.63;18.43;;;;;7.20;99596.00;;;;10378474;28;20208;-79
2021/12/27 00:54:33;;;;;;;37.00;18.67;;;;;7.20;99601.00;;;;10356891;28;20212;-80
2021/12/27 00:59:35;;;;;;;39.57;19.97;;;;;7.20;99593.00;;;;10345114;28;20202;-79
2021/12/27 01:04:37;;;;;;;30.27;17.77;;;;;7.30;99587.00;;;;10329572;28;20246;-79
2021/12/27 01:10:00;;;;;;;31.80;18.17;;;;;7.20;99565.00;;;;10342148;28;20203;-79
2021/12/27 01:15:32;;;;;;;30.77;18.17;;;;;7.30;99581.00;;;;10373622;28;20211;-79
2021/12/27 01:20:35;;;;;;;33.30;19.80;;;;;7.20;99576.00;;;;10356852;28;20211;-79
2021/12/27 01:25:37;;;;;;;33.90;19.47;;;;;7.30;99583.00;;;;10373322;28;20232;-79
2021/12/27 01:30:47;;;;;;;34.20;19.53;;;;;7.30;99579.00;;;;10389742;28;20302;-79
2021/12/27 01:35:49;;;;;;;39.83;21.20;;;;;7.30;99574.00;;;;10373262;28;20227;-79
2021/12/27 01:40:54;;;;;;;36.17;19.80;;;;;7.40;99575.00;;;;10375381;28;20204;-79
2021/12/27 01:46:03;;;;;;;38.47;19.43;;;;;7.40;99568.00;;;;10346553;28;20195;-79
2021/12/27 01:51:08;;;;;;;37.43;19.47;;;;;7.40;99571.00;;;;10372772;28;20196;-78
2021/12/27 01:56:12;;;;;;;38.03;20.67;;;;;7.40;99570.00;;;;10359982;28;20199;-79
2021/12/27 02:01:14;;;;;;;40.87;21.10;;;;;7.40;99553.00;;;;10387865;28;20207;-80
2021/12/27 02:06:17;;;;;;;40.97;19.47;;;;;7.40;99551.00;;;;10369859;28;20192;-80
2021/12/27 02:11:20;;;;;;;40.90;19.80;;;;;7.40;99566.00;;;;10347553;28;20207;-81
2021/12/27 02:16:22;;;;;;;41.23;20.70;;;;;7.40;99553.00;;;;10348333;28;20254;-80
2021/12/27 02:21:25;;;;;;;41.57;21.07;;;;;7.40;99542.00;;;;10344552;28;20219;-80
2021/12/27 02:26:27;;;;;;;42.30;19.87;;;;;7.40;99541.00;;;;10347891;28;20481;-80
2021/12/27 02:31:30;;;;;;;42.97;19.93;;;;;7.30;99541.00;;;;10379401;28;20725;-81
2021/12/27 02:36:33;;;;;;;37.90;19.93;;;;;7.30;99539.00;;;;10335707;28;20242;-80
2021/12/27 02:41:35;;;;;;;40.53;18.80;;;;;7.20;99541.00;;;;10342723;28;20208;-80
2021/12/27 02:46:37;;;;;;;39.87;19.60;;;;;7.30;99527.00;;;;10378730;28;20331;-80
2021/12/27 02:51:39;;;;;;;44.20;19.60;;;;;7.30;99527.00;;;;10346434;28;20215;-81
2021/12/27 02:56:41;;;;;;;36.97;18.63;;;;;7.20;99514.00;;;;10361916;28;20191;-80
2021/12/27 03:01:42;;;;;;;46.23;20.90;;;;;7.20;99506.00;;;;10395614;28;20200;-80
2021/12/27 03:06:44;;;;;;;45.63;21.60;;;;;7.20;99500.00;;;;10337304;28;20215;-80
2021/12/27 03:11:46;;;;;;;51.00;22.23;;;;;7.20;99493.00;;;;10370243;28;20219;-81
2021/12/27 03:16:48;;;;;;;53.17;22.23;;;;;7.20;99484.00;;;;10350911;28;20250;-81
2021/12/27 03:21:50;;;;;;;57.97;24.00;;;;;7.30;99486.00;;;;10330446;28;20208;-81
2021/12/27 03:26:52;;;;;;;51.43;20.27;;;;;7.30;99486.00;;;;10371888;28;20204;-81
2021/12/27 03:31:55;;;;;;;52.53;23.13;;;;;7.30;99484.00;;;;10377680;28;20216;-81
2021/12/27 03:36:57;;;;;;;59.93;23.10;;;;;7.30;99477.00;;;;10365962;28;20228;-81
2021/12/27 03:41:59;;;;;;;62.83;22.67;;;;;7.30;99477.00;;;;10321239;28;20204;-81
2021/12/27 03:47:02;;;;;;;52.40;21.17;;;;;7.40;99471.00;;;;10320819;28;20246;-81
2021/12/27 03:52:05;;;;;;;58.37;23.77;;;;;7.40;99473.00;;;;10327761;28;20207;-81
2021/12/27 03:57:07;;;;;;;56.33;20.43;;;;;7.50;99469.00;;;;10322778;28;20204;-81
2021/12/27 04:02:10;;;;;;;56.77;21.83;;;;;7.50;99468.00;;;;10355501;28;20215;-81
2021/12/27 04:07:34;;;;;;;50.97;21.37;;;;;7.60;99468.00;;;;10364107;28;20207;-81
2021/12/27 04:12:54;;;;;;;51.17;22.30;;;;;7.70;99466.00;;;;10364759;28;20548;-81
2021/12/27 04:18:00;;;;;;;51.57;21.20;;;;;7.70;99460.00;;;;10340347;28;20254;-81
2021/12/27 04:23:03;;;;;;;50.53;20.40;;;;;7.70;99455.00;;;;10355601;28;20234;-80
2021/12/27 04:28:06;;;;;;;46.90;18.63;;;;;7.80;99466.00;;;;10337970;28;20258;-81
2021/12/27 04:33:08;;;;;;;38.27;16.50;;;;;7.80;99461.00;;;;10357382;28;20228;-80
2021/12/27 04:38:10;;;;;;;39.60;14.23;;;;;7.80;99467.00;;;;10397495;28;20250;-81
2021/12/27 04:43:21;;;;;;;36.93;16.63;;;;;7.80;99463.00;;;;10329036;28;20200;-80
2021/12/27 04:48:25;;;;;;;33.60;15.03;;;;;7.80;99460.00;;;;10392104;28;20207;-81
2021/12/27 04:53:27;;;;;;;38.47;16.33;;;;;7.70;99453.00;;;;10379884;28;20747;-81
2021/12/27 04:58:29;;;;;;;37.30;15.80;;;;;7.80;99447.00;;;;10342613;28;20200;-80
2021/12/27 05:03:30;;;;;;;32.03;13.17;;;;;7.80;99454.00;;;;10357863;28;20196;-80
2021/12/27 05:08:33;;;;;;;34.40;12.80;;;;;7.80;99454.00;;;;10344540;28;20207;-80
2021/12/27 05:13:36;;;;;;;29.07;13.30;;;;;7.80;99453.00;;;;10358204;28;20273;-81
2021/12/27 05:18:38;;;;;;;26.07;12.80;;;;;7.80;99455.00;;;;10329861;28;20266;-80
2021/12/27 05:23:48;;;;;;;25.37;13.27;;;;;7.80;99456.00;;;;10368392;28;20204;-80
2021/12/27 05:28:50;;;;;;;23.70;12.57;;;;;7.80;99452.00;;;;10366724;28;20249;-80
2021/12/27 05:33:52;;;;;;;22.30;12.93;;;;;7.80;99444.00;;;;10364195;28;20245;-80
2021/12/27 05:38:54;;;;;;;22.47;11.93;;;;;7.80;99443.00;;;;10342953;28;20230;-80
2021/12/27 05:43:56;;;;;;;24.40;12.43;;;;;7.70;99418.00;;;;10381385;28;20196;-80
2021/12/27 05:48:58;;;;;;;26.23;12.63;;;;;7.60;99420.00;;;;10359249;28;20228;-80
2021/12/27 05:53:59;;;;;;;26.53;12.77;;;;;7.40;99418.00;;;;10368089;28;20262;-80
2021/12/27 05:59:02;;;;;;;19.57;11.13;;;;;7.30;99413.00;;;;10364808;28;20250;-80
2021/12/27 06:04:04;;;;;;;21.00;12.13;;;;;7.20;99404.00;;;;10348387;28;20204;-80
2021/12/27 06:09:06;;;;;;;23.73;13.00;;;;;6.90;99400.00;;;;10355711;28;20203;-80
2021/12/27 06:14:09;;;;;;;20.20;11.83;;;;;6.70;99395.00;;;;10364827;28;20318;-80
2021/12/27 06:19:11;;;;;;;22.43;12.70;;;;;6.50;99392.00;;;;10363605;28;20273;-80
2021/12/27 06:24:13;;;;;;;20.53;12.60;;;;;6.40;99386.00;;;;10364078;28;20559;-80
2021/12/27 06:29:16;;;;;;;20.27;12.80;;;;;6.30;99382.00;;;;10347189;28;20196;-80
2021/12/27 06:34:17;;;;;;;25.77;13.60;;;;;6.30;99378.00;;;;10340572;28;20232;-80
2021/12/27 06:39:20;;;;;;;27.50;13.60;;;;;6.30;99379.00;;;;10363576;28;20196;-80
2021/12/27 06:44:22;;;;;;;27.37;13.40;;;;;6.30;99386.00;;;;10366507;28;20567;-80
2021/12/27 06:49:24;;;;;;;29.07;13.77;;;;;6.30;99370.00;;;;10365454;28;20246;-80
2021/12/27 06:54:26;;;;;;;28.67;13.77;;;;;6.40;99372.00;;;;10377395;28;20638;-80
2021/12/27 06:59:28;;;;;;;28.80;15.00;;;;;6.40;99366.00;;;;10361574;28;20234;-80
2021/12/27 07:04:31;;;;;;;26.40;14.43;;;;;6.40;99356.00;;;;10357562;28;20599;-80
2021/12/27 07:09:33;;;;;;;25.00;14.77;;;;;6.30;99332.00;;;;10360094;28;20195;-80
2021/12/27 07:14:34;;;;;;;28.17;14.47;;;;;6.20;99334.00;;;;10337990;28;20687;-80
2021/12/27 07:19:36;;;;;;;31.93;16.80;;;;;6.20;99329.00;;;;10358793;28;20204;-80
2021/12/27 07:24:38;;;;;;;30.40;15.33;;;;;6.20;99331.00;;;;10361611;28;20204;-80
2021/12/27 07:29:40;;;;;;;28.27;14.63;;;;;6.40;99320.00;;;;10343139;28;20199;-80
2021/12/27 07:34:43;;;;;;;27.97;14.50;;;;;6.50;99317.00;;;;10344987;28;20286;-81
2021/12/27 07:39:45;;;;;;;31.67;14.70;;;;;6.60;99316.00;;;;10347806;28;20199;-80
2021/12/27 07:44:47;;;;;;;25.57;14.67;;;;;6.70;99317.00;;;;10375870;28;20196;-80
2021/12/27 07:49:48;;;;;;;24.13;10.90;;;;;6.90;99326.00;;;;10339925;28;20292;-80
2021/12/27 07:54:51;;;;;;;17.53;10.43;;;;;7.10;99323.00;;;;10368951;28;20215;-81
2021/12/27 07:59:53;;;;;;;22.17;11.17;;;;;7.30;99333.00;;;;10373855;28;20192;-80
2021/12/27 08:04:55;;;;;;;23.97;11.03;;;;;7.40;99317.00;;;;10343773;28;20195;-80
2021/12/27 08:09:57;;;;;;;16.50;10.00;;;;;7.60;99312.00;;;;10366189;28;20199;-80
2021/12/27 08:14:59;;;;;;;14.70;9.03;;;;;7.60;99317.00;;;;10356517;28;20706;-80
2021/12/27 08:20:05;;;;;;;15.53;9.53;;;;;7.70;99311.00;;;;10369707;28;20215;-80
2021/12/27 08:25:07;;;;;;;17.13;9.40;;;;;7.70;99320.00;;;;10361678;28;20199;-81
2021/12/27 08:30:10;;;;;;;16.23;8.10;;;;;7.60;99324.00;;;;10357358;28;20258;-81
2021/12/27 08:35:14;;;;;;;15.03;8.23;;;;;7.60;99315.00;;;;10336194;28;20294;-81
2021/12/27 08:40:16;;;;;;;13.70;7.90;;;;;7.60;99298.00;;;;10351593;28;20647;-81
2021/12/27 08:45:17;;;;;;;18.73;9.93;;;;;7.70;99297.00;;;;10339032;28;20199;-81
2021/12/27 08:50:19;;;;;;;18.70;9.97;;;;;7.80;99297.00;;;;10337145;28;20198;-81
2021/12/27 08:55:21;;;;;;;13.23;8.60;;;;;7.90;99289.00;;;;10357652;28;20211;-81
2021/12/27 09:00:23;;;;;;;14.23;7.73;;;;;8.00;99286.00;;;;10339585;28;20695;-81
2021/12/27 09:05:25;;;;;;;14.37;7.63;;;;;8.10;99287.00;;;;10333719;28;20196;-81
2021/12/27 09:10:27;;;;;;;14.73;7.70;;;;;8.20;99284.00;;;;10340783;28;20274;-81
2021/12/27 09:15:30;;;;;;;10.80;7.67;;;;;8.30;99283.00;;;;10343834;28;20211;-81
2021/12/27 09:20:32;;;;;;;13.33;7.13;;;;;8.40;99274.00;;;;10344694;28;20235;-81
2021/12/27 09:25:34;;;;;;;16.73;8.10;;;;;8.60;99264.00;;;;10341135;28;20199;-80
2021/12/27 09:30:37;;;;;;;9.80;6.60;;;;;8.80;99283.00;;;;10337237;28;20203;-81
2021/12/27 09:35:39;;;;;;;12.87;7.20;;;;;9.00;99273.00;;;;10366599;28;20299;-81
2021/12/27 09:40:41;;;;;;;9.53;6.07;;;;;9.30;99280.00;;;;10350534;28;20196;-80
2021/12/27 09:45:43;;;;;;;9.13;6.10;;;;;9.50;99289.00;;;;10354813;28;20195;-80
2021/12/27 09:50:56;;;;;;;9.97;6.03;;;;;9.50;99279.00;;;;10356135;28;20207;-80
2021/12/27 09:55:59;;;;;;;9.57;5.50;;;;;9.50;99282.00;;;;10345383;28;20211;-80
2021/12/27 10:01:03;;;;;;;10.13;5.90;;;;;9.60;99283.00;;;;10380225;28;20204;-80
2021/12/27 10:06:10;;;;;;;10.17;5.40;;;;;9.70;99278.00;;;;10373377;28;20223;-80
2021/12/27 10:11:20;;;;;;;8.17;4.93;;;;;9.90;99279.00;;;;10361875;28;20275;-80
2021/12/27 10:16:22;;;;;;;8.03;5.03;;;;;10.00;99281.00;;;;10372891;28;20250;-80
2021/12/27 10:21:25;;;;;;;5.20;4.47;;;;;10.00;99267.00;;;;10350627;28;20211;-80
2021/12/27 10:26:30;;;;;;;8.87;5.33;;;;;9.90;99269.00;;;;10393300;28;20671;-79
2021/12/27 10:31:49;;;;;;;6.00;4.23;;;;;9.80;99257.00;;;;10372003;28;20614;-80
2021/12/27 10:37:14;;;;;;;5.67;4.00;;;;;9.90;99247.00;;;;10340370;28;20242;-80
2021/12/27 10:42:26;;;;;;;7.47;4.60;;;;;10.00;99239.00;;;;10351219;28;20212;-81
2021/12/27 10:47:41;;;;;;;7.97;4.97;;;;;10.00;99237.00;;;;10347255;28;20200;-80
2021/12/27 10:52:51;;;;;;;7.47;4.90;;;;;9.90;99229.00;;;;10341944;28;20204;-80
2021/12/27 10:58:09;;;;;;;5.43;4.23;;;;;10.00;99226.00;;;;10361449;28;20200;-81
2021/12/27 11:03:26;;;;;;;7.40;4.30;;;;;10.10;99212.00;;;;10360722;28;20265;-80
2021/12/27 11:08:28;;;;;;;6.43;4.23;;;;;10.30;99214.00;;;;10373693;28;20211;-80
2021/12/27 11:13:32;;;;;;;5.87;4.60;;;;;10.20;99192.00;;;;10332629;28;20266;-80
2021/12/27 11:18:34;;;;;;;7.03;4.07;;;;;10.20;99200.00;;;;10384743;28;20231;-80
2021/12/27 11:23:36;;;;;;;5.03;4.33;;;;;10.40;99212.00;;;;10350009;28;20679;-80
2021/12/27 11:29:16;;;;;;;8.97;5.00;;;;;10.60;99213.00;;;;10334501;28;20214;-80
2021/12/27 11:34:23;;;;;;;6.07;4.93;;;;;10.60;99210.00;;;;10356949;28;20227;-80
2021/12/27 11:39:30;;;;;;;6.23;4.20;;;;;10.70;99203.00;;;;10361928;28;20907;-80
2021/12/27 11:44:44;;;;;;;6.17;3.43;;;;;10.70;99202.00;;;;10390756;28;20207;-80
2021/12/27 11:49:58;;;;;;;4.40;3.53;;;;;10.80;99204.00;;;;10361869;28;20317;-80
2021/12/27 11:55:04;;;;;;;5.63;3.40;;;;;10.90;99195.00;;;;10392135;28;20208;-80
2021/12/27 12:00:23;;;;;;;6.03;3.70;;;;;11.20;99185.00;;;;10381917;28;20208;-80
2021/12/27 12:05:51;;;;;;;3.83;3.33;;;;;11.20;99178.00;;;;10353344;28;20259;-80
2021/12/27 12:11:02;;;;;;;4.97;3.60;;;;;11.20;99171.00;;;;10358693;28;20231;-81
2021/12/27 12:16:18;;;;;;;4.57;3.03;;;;;11.20;99162.00;;;;10338536;28;20207;-80
2021/12/27 12:21:41;;;;;;;6.10;2.90;;;;;11.20;99173.00;;;;10364050;28;20702;-80
2021/12/27 12:26:56;;;;;;;6.27;3.23;;;;;11.10;99148.00;;;;10337447;28;20200;-80
2021/12/27 12:32:06;;;;;;;6.53;2.67;;;;;11.00;99142.00;;;;10367412;28;20327;-80
2021/12/27 12:37:14;;;;;;;2.83;2.63;;;;;10.90;99145.00;;;;10377060;28;20289;-81
2021/12/27 12:42:26;;;;;;;5.50;2.90;;;;;10.80;99137.00;;;;10381071;28;20207;-80
2021/12/27 12:47:38;;;;;;;7.00;3.37;;;;;10.70;99133.00;;;;10339986;28;20192;-80
2021/12/27 12:52:52;;;;;;;6.40;3.33;;;;;10.60;99127.00;;;;10374131;28;20196;-80
2021/12/27 12:57:54;;;;;;;4.97;3.00;;;;;10.60;99127.00;;;;10373005;28;20257;-80
2021/12/27 13:03:15;;;;;;;7.73;2.70;;;;;10.70;99118.00;;;;10371995;28;20213;-80
2021/12/27 13:08:17;;;;;;;7.50;3.07;;;;;10.70;99121.00;;;;10368193;28;20265;-80
2021/12/27 13:13:19;;;;;;;4.60;2.47;;;;;10.60;99124.00;;;;10346114;28;20270;-80
2021/12/27 13:18:23;;;;;;;4.70;2.20;;;;;10.60;99120.00;;;;10367346;28;20192;-80
2021/12/27 13:23:29;;;;;;;8.40;3.27;;;;;10.60;99117.00;;;;10373404;28;20212;-80
2021/12/27 13:28:44;;;;;;;6.60;2.87;;;;;10.60;99114.00;;;;10341743;28;20204;-80
2021/12/27 13:34:02;;;;;;;5.70;2.50;;;;;10.50;99116.00;;;;10359790;28;20245;-80
2021/12/27 13:39:07;;;;;;;6.27;2.83;;;;;10.50;99110.00;;;;10349545;28;20194;-80
2021/12/27 13:44:11;;;;;;;5.40;2.73;;;;;10.40;99112.00;;;;10369707;28;20254;-80
2021/12/27 13:49:13;;;;;;;9.13;3.20;;;;;10.40;99113.00;;;;10354404;28;20564;-81
2021/12/27 13:54:16;;;;;;;7.33;3.10;;;;;10.30;99102.00;;;;10335184;28;20220;-81
2021/12/27 13:59:22;;;;;;;13.97;3.33;;;;;10.30;99103.00;;;;10377712;28;20546;-82
2021/12/27 14:04:25;;;;;;;7.03;3.10;;;;;10.20;99091.00;;;;10327833;28;20259;-82
2021/12/27 14:09:30;;;;;;;6.27;2.83;;;;;10.20;99095.00;;;;10392737;28;20214;-81
2021/12/27 14:14:38;;;;;;;9.37;2.93;;;;;10.20;99082.00;;;;10380111;28;20729;-81
2021/12/27 14:19:42;;;;;;;8.77;3.77;;;;;10.20;99091.00;;;;10382378;28;20238;-82
2021/12/27 14:24:54;;;;;;;3.93;2.57;;;;;10.20;99090.00;;;;10378762;28;20302;-82
2021/12/27 14:30:04;;;;;;;7.07;3.50;;;;;10.10;99086.00;;;;10371793;28;20188;-82
2021/12/27 14:35:34;;;;;;;9.30;3.73;;;;;10.10;99083.00;;;;10369807;28;20318;-82
2021/12/27 14:40:40;;;;;;;5.53;2.90;;;;;10.00;99078.00;;;;10379377;28;20295;-83
2021/12/27 14:45:45;;;;;;;4.93;2.93;;;;;9.90;99070.00;;;;10345824;28;20255;-83
2021/12/27 14:50:48;;;;;;;12.73;3.63;;;;;9.80;99074.00;;;;10341388;28;20206;-83
2021/12/27 14:55:51;;;;;;;10.83;4.23;;;;;9.70;99070.00;;;;10366783;28;20214;-83
2021/12/27 15:00:56;;;;;;;5.90;3.73;;;;;9.70;99057.00;;;;10368709;28;20202;-83
2021/12/27 15:05:59;;;;;;;9.80;4.20;;;;;9.60;99055.00;;;;10377029;28;20223;-83
2021/12/27 15:11:03;;;;;;;8.47;3.50;;;;;9.60;99044.00;;;;10361074;28;20195;-83
2021/12/27 15:16:05;;;;;;;9.77;4.53;;;;;9.50;99054.00;;;;10407734;28;20208;-83
2021/12/27 15:21:07;;;;;;;12.13;4.70;;;;;9.40;99052.00;;;;10365440;28;20204;-83
2021/12/27 15:26:09;;;;;;;9.73;4.37;;;;;9.40;99051.00;;;;10363762;28;20242;-83
2021/12/27 15:31:11;;;;;;;8.13;3.40;;;;;9.40;99051.00;;;;10360164;28;20199;-83
2021/12/27 15:36:13;;;;;;;6.07;3.80;;;;;9.40;99058.00;;;;10360806;28;20231;-83
2021/12/27 15:41:16;;;;;;;5.47;3.50;;;;;9.30;99053.00;;;;10343825;28;20200;-83
2021/12/27 15:46:18;;;;;;;8.87;4.03;;;;;9.30;99053.00;;;;10328056;28;20279;-82
2021/12/27 15:51:20;;;;;;;9.10;4.03;;;;;9.30;99052.00;;;;10367651;28;20297;-82
2021/12/27 15:56:22;;;;;;;8.07;3.77;;;;;9.30;99051.00;;;;10342598;28;20216;-82
2021/12/27 16:01:24;;;;;;;6.53;3.33;;;;;9.20;99048.00;;;;10333130;28;20207;-82
2021/12/27 16:06:26;;;;;;;9.27;3.80;;;;;9.20;99061.00;;;;10362481;28;20271;-81
2021/12/27 16:11:29;;;;;;;8.00;3.67;;;;;9.20;99070.00;;;;10376766;28;20255;-82
2021/12/27 16:16:32;;;;;;;4.97;3.40;;;;;9.10;99071.00;;;;10339703;28;20223;-81
2021/12/27 16:21:34;;;;;;;7.37;4.00;;;;;9.10;99081.00;;;;10315515;28;20222;-82
2021/12/27 16:26:40;;;;;;;7.27;4.40;;;;;9.10;99073.00;;;;10358808;28;20199;-82
2021/12/27 16:31:42;;;;;;;5.73;4.33;;;;;9.00;99070.00;;;;10335445;28;20207;-82
2021/12/27 16:36:44;;;;;;;10.03;5.23;;;;;9.00;99072.00;;;;10348520;28;20250;-82
2021/12/27 16:41:46;;;;;;;8.83;4.70;;;;;9.00;99070.00;;;;10365494;28;20199;-82
2021/12/27 16:46:48;;;;;;;8.47;4.13;;;;;9.00;99074.00;;;;10338163;28;20614;-82
2021/12/27 16:51:50;;;;;;;6.30;4.50;;;;;9.00;99071.00;;;;10313834;28;20285;-83
2021/12/27 16:56:52;;;;;;;6.17;4.47;;;;;9.00;99067.00;;;;10386002;28;20270;-83
2021/12/27 17:01:57;;;;;;;6.40;4.57;;;;;9.00;99060.00;;;;10340803;28;20203;-82
2021/12/27 17:06:59;;;;;;;6.07;4.70;;;;;9.00;99050.00;;;;10343432;28;20718;-83
2021/12/27 17:12:03;;;;;;;5.30;4.27;;;;;9.00;99053.00;;;;10345415;28;20195;-82
2021/12/27 17:17:05;;;;;;;7.20;4.17;;;;;8.90;99055.00;;;;10348517;28;20262;-81
2021/12/27 17:22:09;;;;;;;5.50;4.77;;;;;8.90;99053.00;;;;10356289;28;20214;-81
2021/12/27 17:27:12;;;;;;;6.50;4.40;;;;;8.90;99054.00;;;;10364320;28;20294;-81
2021/12/27 17:32:14;;;;;;;9.13;5.80;;;;;8.90;99055.00;;;;10338966;28;20207;-80
2021/12/27 17:37:16;;;;;;;7.83;4.90;;;;;8.90;99055.00;;;;10349140;28;20630;-80
2021/12/27 17:42:18;;;;;;;5.73;5.00;;;;;8.90;99064.00;;;;10338953;28;20210;-80
2021/12/27 17:47:20;;;;;;;6.47;4.77;;;;;8.90;99050.00;;;;10331073;28;20259;-80
2021/12/27 17:52:24;;;;;;;6.77;3.70;;;;;8.90;99063.00;;;;10377117;28;20650;-79
2021/12/27 17:57:29;;;;;;;4.37;3.97;;;;;8.90;99059.00;;;;10322319;28;20242;-79
2021/12/27 18:02:32;;;;;;;4.17;3.20;;;;;8.90;99061.00;;;;10378668;28;20333;-80
2021/12/27 18:07:34;;;;;;;4.57;3.60;;;;;8.90;99070.00;;;;10329062;28;20202;-79
2021/12/27 18:12:36;;;;;;;8.33;4.00;;;;;8.90;99065.00;;;;10357488;28;20208;-79
2021/12/27 18:17:42;;;;;;;6.50;3.70;;;;;8.90;99063.00;;;;10335355;28;20263;-80
2021/12/27 18:22:49;;;;;;;6.00;3.90;;;;;9.00;99062.00;;;;10348769;28;20215;-79
2021/12/27 18:27:52;;;;;;;6.43;4.73;;;;;9.00;99063.00;;;;10369478;28;20211;-79
2021/12/27 18:32:55;;;;;;;6.93;5.00;;;;;9.00;99064.00;;;;10329986;28;20200;-80
2021/12/27 18:37:57;;;;;;;8.03;5.77;;;;;9.00;99065.00;;;;10331635;28;20255;-79
2021/12/27 18:42:59;;;;;;;9.67;6.33;;;;;9.00;99064.00;;;;10364540;28;20202;-79
2021/12/27 18:48:02;;;;;;;11.17;6.60;;;;;9.00;99059.00;;;;10305216;28;20204;-80
2021/12/27 18:53:06;;;;;;;17.10;7.03;;;;;9.00;99066.00;;;;10378064;28;20215;-80
2021/12/27 18:58:08;;;;;;;14.63;7.80;;;;;9.10;99070.00;;;;10345004;28;20957;-79
2021/12/27 19:03:10;;;;;;;13.53;6.97;;;;;9.00;99072.00;;;;10361896;28;20207;-79
2021/12/27 19:08:12;;;;;;;18.00;8.10;;;;;9.10;99070.00;;;;10350822;28;20203;-79
2021/12/27 19:13:14;;;;;;;17.43;8.43;;;;;9.10;99076.00;;;;10393492;28;20203;-79
2021/12/27 19:18:16;;;;;;;17.53;7.80;;;;;9.10;99073.00;;;;10344321;28;20231;-79
2021/12/27 19:23:19;;;;;;;17.80;7.90;;;;;9.20;99074.00;;;;10344920;28;20223;-79
2021/12/27 19:28:21;;;;;;;12.70;6.73;;;;;9.20;99071.00;;;;10369659;28;20287;-79
2021/12/27 19:33:23;;;;;;;14.23;7.33;;;;;9.30;99070.00;;;;10381921;28;20231;-79
2021/12/27 19:38:25;;;;;;;16.23;7.77;;;;;9.30;99064.00;;;;10340674;28;20562;-78
2021/12/27 19:43:27;;;;;;;19.40;7.83;;;;;9.30;99064.00;;;;10322595;28;20204;-79
2021/12/27 19:48:30;;;;;;;17.40;7.77;;;;;9.30;99062.00;;;;10365379;28;20211;-79
2021/12/27 19:53:31;;;;;;;26.87;7.37;;;;;9.30;99067.00;;;;10407791;28;20671;-78
2021/12/27 19:58:33;;;;;;;20.90;7.03;;;;;9.30;99076.00;;;;10342427;28;20216;-79
2021/12/27 20:03:35;;;;;;;20.17;6.07;;;;;9.20;99072.00;;;;10357992;28;20289;-78
2021/12/27 20:08:37;;;;;;;20.70;7.50;;;;;9.10;99083.00;;;;10322285;28;20313;-79
2021/12/27 20:13:40;;;;;;;20.60;6.50;;;;;9.10;99079.00;;;;10330513;28;20200;-79
2021/12/27 20:18:44;;;;;;;23.53;6.83;;;;;9.20;99070.00;;;;10339010;28;20216;-78
2021/12/27 20:23:46;;;;;;;21.57;6.47;;;;;9.30;99059.00;;;;10338274;28;20204;-79
2021/12/27 20:28:48;;;;;;;21.20;5.70;;;;;9.40;99058.00;;;;10341999;28;20632;-79
2021/12/27 20:33:50;;;;;;;21.90;5.90;;;;;9.40;99050.00;;;;10385597;28;20247;-79
2021/12/27 20:38:52;;;;;;;19.20;6.17;;;;;9.50;99039.00;;;;10356642;28;20219;-79
2021/12/27 20:43:54;;;;;;;32.07;6.03;;;;;9.60;99026.00;;;;10356771;28;20276;-79
2021/12/27 20:48:56;;;;;;;22.13;6.00;;;;;9.60;99023.00;;;;10350908;28;20240;-78
2021/12/27 20:53:58;;;;;;;24.80;5.73;;;;;9.60;99042.00;;;;10342221;28;20276;-79
2021/12/27 20:59:00;;;;;;;27.13;6.10;;;;;9.50;99036.00;;;;10371175;28;20272;-79
2021/12/27 21:04:04;;;;;;;22.73;5.80;;;;;9.50;99042.00;;;;10316275;28;20628;-79
2021/12/27 21:09:08;;;;;;;24.80;6.43;;;;;9.40;99027.00;;;;10334305;28;20775;-79
2021/12/27 21:14:10;;;;;;;18.27;4.90;;;;;9.30;99027.00;;;;10370536;28;20196;-79
2021/12/27 21:19:12;;;;;;;27.37;6.47;;;;;9.30;99016.00;;;;10378396;28;20204;-79
2021/12/27 21:24:14;;;;;;;25.50;5.80;;;;;9.20;99017.00;;;;10376294;28;20215;-79
2021/12/27 21:29:28;;;;;;;22.40;6.00;;;;;9.10;99002.00;;;;10372051;28;20214;-78
2021/12/27 21:34:30;;;;;;;32.43;6.90;;;;;9.10;98999.00;;;;10348179;28;20219;-79
2021/12/27 21:39:32;;;;;;;27.17;6.07;;;;;9.00;98989.00;;;;10327307;28;20287;-79
2021/12/27 21:44:35;;;;;;;24.57;6.90;;;;;9.00;98984.00;;;;10332104;28;20269;-78
2021/12/27 21:49:39;;;;;;;29.90;6.70;;;;;9.00;98982.00;;;;10354775;28;20204;-78
2021/12/27 21:54:41;;;;;;;29.47;6.63;;;;;8.90;98990.00;;;;10338195;28;20291;-79
2021/12/27 21:59:43;;;;;;;27.97;6.40;;;;;8.80;98983.00;;;;10313666;28;20207;-79
2021/12/27 22:04:46;;;;;;;24.07;6.30;;;;;8.90;98967.00;;;;10354361;28;20247;-79
2021/12/27 22:09:49;;;;;;;29.20;5.60;;;;;9.00;98978.00;;;;10377157;28;20206;-79
2021/12/27 22:14:51;;;;;;;32.97;6.93;;;;;9.00;98978.00;;;;10402976;28;20207;-78
2021/12/27 22:19:52;;;;;;;34.40;7.07;;;;;9.00;98975.00;;;;10359070;28;20683;-79
2021/12/27 22:24:54;;;;;;;32.17;6.80;;;;;9.00;98978.00;;;;10402671;28;20191;-78
2021/12/27 22:29:57;;;;;;;34.83;7.80;;;;;9.00;98972.00;;;;10366715;28;20198;-79
2021/12/27 22:34:59;;;;;;;29.87;7.03;;;;;9.00;98966.00;;;;10343809;28;20270;-78
2021/12/27 22:40:04;;;;;;;29.43;5.87;;;;;9.10;98962.00;;;;10359483;28;20203;-79
2021/12/27 22:45:08;;;;;;;30.87;6.93;;;;;9.20;98945.00;;;;10328929;28;20246;-79
2021/12/27 22:50:11;;;;;;;37.63;6.83;;;;;9.20;98941.00;;;;10358260;28;20714;-78
2021/12/27 22:55:16;;;;;;;33.80;7.70;;;;;9.10;98935.00;;;;10350517;28;20571;-78
2021/12/27 23:00:26;;;;;;;36.20;6.93;;;;;9.10;98923.00;;;;10342701;28;20204;-78
2021/12/27 23:05:29;;;;;;;31.37;5.87;;;;;9.20;98921.00;;;;10341326;28;20223;-78
2021/12/27 23:10:32;;;;;;;46.93;6.93;;;;;9.20;98911.00;;;;10360036;28;20235;-78
2021/12/27 23:15:34;;;;;;;48.47;7.27;;;;;9.20;98894.00;;;;10342819;28;20623;-79
2021/12/27 23:20:36;;;;;;;25.60;5.53;;;;;9.20;98910.00;;;;10343153;28;20697;-79
2021/12/27 23:25:38;;;;;;;37.57;6.53;;;;;9.30;98892.00;;;;10342810;28;20195;-79
2021/12/27 23:30:44;;;;;;;34.17;6.20;;;;;9.30;98887.00;;;;10343141;28;20243;-79
2021/12/27 23:35:49;;;;;;;32.80;6.13;;;;;9.30;98880.00;;;;10346662;28;20717;-78
2021/12/27 23:40:53;;;;;;;34.50;6.33;;;;;9.30;98874.00;;;;10343239;28;20262;-78
2021/12/27 23:45:56;;;;;;;35.87;7.53;;;;;9.40;98867.00;;;;10308602;28;20249;-79
2021/12/27 23:50:59;;;;;;;36.37;7.17;;;;;9.40;98873.00;;;;10343491;28;20249;-78
2021/12/27 23:56:02;;;;;;;29.13;5.40;;;;;9.50;98874.00;;;;10357937;28;20211;-79
